Ashdown, Arkansas
Current Conditions -  °F | °C
As of 6:53 AM on Wednesday 26 Nov 2014 (Local Time) from KTXK Reporting Station
Clear Clear  
Wind Chill: 35°   Ceiling: Unl
Heat Index: 41°   Visibility: 10mi
Dew Point: 32°   Wind: 9mph
Humidity: 70%   Direction: 200°SSW
Pressure: 30.05"   Gusts: NA
Location:  33.67°N, 94.13°W
Report Text: KTXK 261253Z 20008KT 10SM CLR 05/00 A3005 RMK AO2 SLP177 T00500000
Loading
Personal Weather Stations






























Interactive Weather Map New forecast layout! Learn more

10-Day Weather Forecast

Advertisements
Track Severe Weather on mobile